sensor_id;sensor_type;location;lat;lon;timestamp;P1;durP1;ratioP1;P2;durP2;ratioP2
53521;SDS011;39398;48.382;9.802;2023-04-03T00:01:55;11.73;;;6.57;;
53521;SDS011;39398;48.382;9.802;2023-04-03T00:06:57;11.43;;;9.35;;
53521;SDS011;39398;48.382;9.802;2023-04-03T00:11:59;10.20;;;6.88;;
53521;SDS011;39398;48.382;9.802;2023-04-03T00:17:01;11.07;;;8.15;;
53521;SDS011;39398;48.382;9.802;2023-04-03T00:22:03;10.07;;;7.65;;
53521;SDS011;39398;48.382;9.802;2023-04-03T00:27:04;12.52;;;6.05;;
53521;SDS011;39398;48.382;9.802;2023-04-03T00:32:07;11.93;;;8.52;;
53521;SDS011;39398;48.382;9.802;2023-04-03T00:37:09;10.95;;;7.95;;
53521;SDS011;39398;48.382;9.802;2023-04-03T00:42:10;9.57;;;6.78;;
53521;SDS011;39398;48.382;9.802;2023-04-03T00:47:15;10.05;;;7.43;;
53521;SDS011;39398;48.382;9.802;2023-04-03T00:52:19;12.15;;;9.20;;
53521;SDS011;39398;48.382;9.802;2023-04-03T00:57:24;10.90;;;7.80;;
53521;SDS011;39398;48.382;9.802;2023-04-03T01:02:27;11.18;;;7.97;;
53521;SDS011;39398;48.382;9.802;2023-04-03T01:07:29;7.97;;;6.47;;
53521;SDS011;39398;48.382;9.802;2023-04-03T01:12:33;9.77;;;7.50;;
53521;SDS011;39398;48.382;9.802;2023-04-03T01:17:39;9.57;;;6.63;;
53521;SDS011;39398;48.382;9.802;2023-04-03T01:22:43;11.85;;;7.60;;
53521;SDS011;39398;48.382;9.802;2023-04-03T01:27:48;9.02;;;5.70;;
53521;SDS011;39398;48.382;9.802;2023-04-03T01:32:51;8.52;;;6.53;;
53521;SDS011;39398;48.382;9.802;2023-04-03T01:37:52;8.10;;;5.75;;
53521;SDS011;39398;48.382;9.802;2023-04-03T01:42:54;10.25;;;6.72;;
53521;SDS011;39398;48.382;9.802;2023-04-03T01:47:57;8.95;;;6.05;;
53521;SDS011;39398;48.382;9.802;2023-04-03T01:52:58;8.07;;;6.20;;
53521;SDS011;39398;48.382;9.802;2023-04-03T01:58:00;5.32;;;3.95;;
53521;SDS011;39398;48.382;9.802;2023-04-03T02:03:03;7.38;;;5.20;;
53521;SDS011;39398;48.382;9.802;2023-04-03T02:08:04;6.45;;;4.72;;
53521;SDS011;39398;48.382;9.802;2023-04-03T02:13:06;6.32;;;4.13;;
53521;SDS011;39398;48.382;9.802;2023-04-03T02:18:09;5.95;;;3.95;;
53521;SDS011;39398;48.382;9.802;2023-04-03T02:23:10;6.25;;;3.65;;
53521;SDS011;39398;48.382;9.802;2023-04-03T02:28:12;6.30;;;3.45;;
53521;SDS011;39398;48.382;9.802;2023-04-03T02:33:15;3.85;;;3.08;;
53521;SDS011;39398;48.382;9.802;2023-04-03T02:38:16;6.07;;;4.22;;
53521;SDS011;39398;48.382;9.802;2023-04-03T02:43:18;7.18;;;4.85;;
53521;SDS011;39398;48.382;9.802;2023-04-03T02:48:21;5.10;;;3.90;;
53521;SDS011;39398;48.382;9.802;2023-04-03T02:53:22;6.93;;;5.00;;
53521;SDS011;39398;48.382;9.802;2023-04-03T02:58:24;3.63;;;3.08;;
53521;SDS011;39398;48.382;9.802;2023-04-03T03:03:27;10.10;;;4.95;;
53521;SDS011;39398;48.382;9.802;2023-04-03T03:08:28;7.13;;;5.63;;
53521;SDS011;39398;48.382;9.802;2023-04-03T03:13:30;5.80;;;4.45;;
53521;SDS011;39398;48.382;9.802;2023-04-03T03:18:33;6.57;;;4.45;;
53521;SDS011;39398;48.382;9.802;2023-04-03T03:23:35;6.38;;;4.35;;
53521;SDS011;39398;48.382;9.802;2023-04-03T03:28:37;6.57;;;4.90;;
53521;SDS011;39398;48.382;9.802;2023-04-03T03:33:41;5.50;;;4.60;;
53521;SDS011;39398;48.382;9.802;2023-04-03T03:38:42;5.60;;;4.47;;
53521;SDS011;39398;48.382;9.802;2023-04-03T03:43:44;4.57;;;3.22;;
53521;SDS011;39398;48.382;9.802;2023-04-03T03:48:47;4.68;;;3.53;;
53521;SDS011;39398;48.382;9.802;2023-04-03T03:53:48;4.40;;;3.53;;
53521;SDS011;39398;48.382;9.802;2023-04-03T03:58:50;3.88;;;3.45;;
53521;SDS011;39398;48.382;9.802;2023-04-03T04:03:53;4.63;;;2.83;;
53521;SDS011;39398;48.382;9.802;2023-04-03T04:08:54;4.32;;;2.75;;
53521;SDS011;39398;48.382;9.802;2023-04-03T04:13:56;3.90;;;3.25;;
53521;SDS011;39398;48.382;9.802;2023-04-03T04:18:59;3.03;;;2.72;;
53521;SDS011;39398;48.382;9.802;2023-04-03T04:24:00;3.42;;;2.50;;
53521;SDS011;39398;48.382;9.802;2023-04-03T04:29:02;3.15;;;2.72;;
53521;SDS011;39398;48.382;9.802;2023-04-03T04:34:05;3.30;;;3.00;;
53521;SDS011;39398;48.382;9.802;2023-04-03T04:39:06;3.88;;;3.15;;
53521;SDS011;39398;48.382;9.802;2023-04-03T04:44:08;4.88;;;3.03;;
53521;SDS011;39398;48.382;9.802;2023-04-03T04:49:11;5.75;;;2.63;;
53521;SDS011;39398;48.382;9.802;2023-04-03T04:54:12;5.53;;;3.25;;
53521;SDS011;39398;48.382;9.802;2023-04-03T04:59:14;3.35;;;2.55;;
53521;SDS011;39398;48.382;9.802;2023-04-03T05:04:17;3.45;;;3.10;;
53521;SDS011;39398;48.382;9.802;2023-04-03T05:09:19;3.00;;;2.70;;
53521;SDS011;39398;48.382;9.802;2023-04-03T05:14:20;3.95;;;3.05;;
53521;SDS011;39398;48.382;9.802;2023-04-03T05:19:23;3.95;;;2.58;;
53521;SDS011;39398;48.382;9.802;2023-04-03T05:24:25;3.45;;;2.90;;
53521;SDS011;39398;48.382;9.802;2023-04-03T05:29:26;4.30;;;3.05;;
53521;SDS011;39398;48.382;9.802;2023-04-03T05:34:29;6.55;;;3.35;;
53521;SDS011;39398;48.382;9.802;2023-04-03T05:39:31;4.00;;;3.40;;
53521;SDS011;39398;48.382;9.802;2023-04-03T05:44:32;3.28;;;2.97;;
53521;SDS011;39398;48.382;9.802;2023-04-03T05:49:35;4.30;;;2.90;;
53521;SDS011;39398;48.382;9.802;2023-04-03T05:54:37;3.40;;;2.63;;
53521;SDS011;39398;48.382;9.802;2023-04-03T05:59:39;5.95;;;3.33;;
53521;SDS011;39398;48.382;9.802;2023-04-03T06:04:42;3.10;;;2.70;;
53521;SDS011;39398;48.382;9.802;2023-04-03T06:09:44;4.25;;;2.90;;
53521;SDS011;39398;48.382;9.802;2023-04-03T06:14:46;3.95;;;2.80;;
53521;SDS011;39398;48.382;9.802;2023-04-03T06:19:49;7.55;;;3.60;;
53521;SDS011;39398;48.382;9.802;2023-04-03T06:24:50;5.63;;;4.03;;
53521;SDS011;39398;48.382;9.802;2023-04-03T06:29:52;2.60;;;2.40;;
53521;SDS011;39398;48.382;9.802;2023-04-03T06:34:55;4.47;;;3.35;;
53521;SDS011;39398;48.382;9.802;2023-04-03T06:39:56;4.85;;;3.55;;
53521;SDS011;39398;48.382;9.802;2023-04-03T06:44:58;5.97;;;4.40;;
53521;SDS011;39398;48.382;9.802;2023-04-03T06:50:00;6.22;;;4.32;;
53521;SDS011;39398;48.382;9.802;2023-04-03T06:55:02;5.60;;;4.22;;
53521;SDS011;39398;48.382;9.802;2023-04-03T07:00:05;6.93;;;3.97;;
53521;SDS011;39398;48.382;9.802;2023-04-03T07:05:09;5.68;;;4.18;;
53521;SDS011;39398;48.382;9.802;2023-04-03T07:10:10;6.70;;;4.10;;
53521;SDS011;39398;48.382;9.802;2023-04-03T07:15:12;5.78;;;3.60;;
53521;SDS011;39398;48.382;9.802;2023-04-03T07:20:14;4.72;;;4.20;;
53521;SDS011;39398;48.382;9.802;2023-04-03T07:25:16;5.78;;;3.88;;
53521;SDS011;39398;48.382;9.802;2023-04-03T07:30:18;7.28;;;4.20;;
53521;SDS011;39398;48.382;9.802;2023-04-03T07:35:21;4.03;;;3.45;;
53521;SDS011;39398;48.382;9.802;2023-04-03T07:40:24;9.88;;;4.60;;
53521;SDS011;39398;48.382;9.802;2023-04-03T07:45:26;5.10;;;3.97;;
53521;SDS011;39398;48.382;9.802;2023-04-03T07:50:29;6.88;;;4.68;;
53521;SDS011;39398;48.382;9.802;2023-04-03T07:55:31;7.63;;;4.80;;
53521;SDS011;39398;48.382;9.802;2023-04-03T08:00:35;7.13;;;4.63;;
53521;SDS011;39398;48.382;9.802;2023-04-03T08:05:38;4.63;;;3.65;;
53521;SDS011;39398;48.382;9.802;2023-04-03T08:10:41;4.68;;;3.72;;
53521;SDS011;39398;48.382;9.802;2023-04-03T08:15:42;7.97;;;4.32;;
53521;SDS011;39398;48.382;9.802;2023-04-03T08:20:45;8.00;;;4.45;;
53521;SDS011;39398;48.382;9.802;2023-04-03T08:25:47;5.20;;;4.00;;
53521;SDS011;39398;48.382;9.802;2023-04-03T08:30:48;6.80;;;5.13;;
53521;SDS011;39398;48.382;9.802;2023-04-03T08:35:51;4.53;;;3.95;;
53521;SDS011;39398;48.382;9.802;2023-04-03T08:40:59;6.47;;;4.57;;
53521;SDS011;39398;48.382;9.802;2023-04-03T08:46:05;8.27;;;4.50;;
53521;SDS011;39398;48.382;9.802;2023-04-03T08:51:14;4.47;;;3.65;;
53521;SDS011;39398;48.382;9.802;2023-04-03T08:56:18;4.55;;;3.88;;
53521;SDS011;39398;48.382;9.802;2023-04-03T09:01:20;4.40;;;3.72;;
53521;SDS011;39398;48.382;9.802;2023-04-03T09:06:28;4.13;;;3.38;;
53521;SDS011;39398;48.382;9.802;2023-04-03T09:11:36;4.97;;;3.92;;
53521;SDS011;39398;48.382;9.802;2023-04-03T09:16:49;8.27;;;3.97;;
53521;SDS011;39398;48.382;9.802;2023-04-03T09:21:57;4.78;;;3.70;;
53521;SDS011;39398;48.382;9.802;2023-04-03T09:27:01;5.85;;;4.05;;
53521;SDS011;39398;48.382;9.802;2023-04-03T09:32:15;7.60;;;4.95;;
53521;SDS011;39398;48.382;9.802;2023-04-03T09:42:41;6.78;;;3.63;;
53521;SDS011;39398;48.382;9.802;2023-04-03T09:53:23;4.27;;;3.87;;
53521;SDS011;39398;48.382;9.802;2023-04-03T09:58:29;7.50;;;5.07;;
53521;SDS011;39398;48.382;9.802;2023-04-03T10:03:47;5.72;;;4.65;;
53521;SDS011;39398;48.382;9.802;2023-04-03T10:09:10;4.23;;;3.60;;
53521;SDS011;39398;48.382;9.802;2023-04-03T10:14:17;5.90;;;3.92;;
53521;SDS011;39398;48.382;9.802;2023-04-03T10:24:50;6.28;;;5.03;;
53521;SDS011;39398;48.382;9.802;2023-04-03T10:29:57;5.65;;;4.70;;
53521;SDS011;39398;48.382;9.802;2023-04-03T10:35:07;6.07;;;5.07;;
53521;SDS011;39398;48.382;9.802;2023-04-03T10:40:22;5.53;;;4.88;;
53521;SDS011;39398;48.382;9.802;2023-04-03T10:45:31;6.63;;;4.78;;
53521;SDS011;39398;48.382;9.802;2023-04-03T10:50:48;7.22;;;4.75;;
53521;SDS011;39398;48.382;9.802;2023-04-03T10:55:57;4.70;;;3.85;;
53521;SDS011;39398;48.382;9.802;2023-04-03T11:01:06;4.63;;;3.67;;
53521;SDS011;39398;48.382;9.802;2023-04-03T11:06:12;8.75;;;5.38;;
53521;SDS011;39398;48.382;9.802;2023-04-03T11:11:19;4.05;;;3.08;;
53521;SDS011;39398;48.382;9.802;2023-04-03T11:16:24;4.03;;;3.63;;
53521;SDS011;39398;48.382;9.802;2023-04-03T11:21:28;5.32;;;3.53;;
53521;SDS011;39398;48.382;9.802;2023-04-03T11:26:36;3.70;;;3.40;;
53521;SDS011;39398;48.382;9.802;2023-04-03T11:31:44;5.40;;;4.22;;
53521;SDS011;39398;48.382;9.802;2023-04-03T11:37:04;5.15;;;3.88;;
53521;SDS011;39398;48.382;9.802;2023-04-03T11:42:17;4.28;;;3.53;;
53521;SDS011;39398;48.382;9.802;2023-04-03T11:47:46;3.28;;;2.97;;
53521;SDS011;39398;48.382;9.802;2023-04-03T11:52:56;4.38;;;3.38;;
53521;SDS011;39398;48.382;9.802;2023-04-03T11:58:04;4.00;;;3.25;;
53521;SDS011;39398;48.382;9.802;2023-04-03T12:08:43;4.20;;;3.13;;
53521;SDS011;39398;48.382;9.802;2023-04-03T12:19:24;5.88;;;4.32;;
53521;SDS011;39398;48.382;9.802;2023-04-03T12:24:43;4.15;;;3.75;;
53521;SDS011;39398;48.382;9.802;2023-04-03T12:29:50;4.72;;;3.10;;
53521;SDS011;39398;48.382;9.802;2023-04-03T12:35:01;4.28;;;3.50;;
53521;SDS011;39398;48.382;9.802;2023-04-03T12:40:09;3.40;;;3.10;;
53521;SDS011;39398;48.382;9.802;2023-04-03T12:45:19;5.53;;;3.67;;
53521;SDS011;39398;48.382;9.802;2023-04-03T12:50:22;4.75;;;3.33;;
53521;SDS011;39398;48.382;9.802;2023-04-03T12:55:26;5.35;;;3.10;;
53521;SDS011;39398;48.382;9.802;2023-04-03T13:00:30;3.38;;;2.65;;
53521;SDS011;39398;48.382;9.802;2023-04-03T13:05:33;4.72;;;3.30;;
53521;SDS011;39398;48.382;9.802;2023-04-03T13:10:43;3.70;;;3.30;;
53521;SDS011;39398;48.382;9.802;2023-04-03T13:15:50;4.70;;;3.00;;
53521;SDS011;39398;48.382;9.802;2023-04-03T13:20:51;3.13;;;2.83;;
53521;SDS011;39398;48.382;9.802;2023-04-03T13:25:57;6.25;;;3.20;;
53521;SDS011;39398;48.382;9.802;2023-04-03T13:31:03;3.38;;;2.92;;
53521;SDS011;39398;48.382;9.802;2023-04-03T13:36:09;5.95;;;4.00;;
53521;SDS011;39398;48.382;9.802;2023-04-03T13:41:23;5.65;;;3.17;;
53521;SDS011;39398;48.382;9.802;2023-04-03T13:51:29;5.60;;;3.53;;
53521;SDS011;39398;48.382;9.802;2023-04-03T13:56:31;6.45;;;3.25;;
53521;SDS011;39398;48.382;9.802;2023-04-03T14:01:40;4.03;;;3.05;;
53521;SDS011;39398;48.382;9.802;2023-04-03T14:06:45;4.45;;;2.60;;
53521;SDS011;39398;48.382;9.802;2023-04-03T14:11:47;3.78;;;2.55;;
53521;SDS011;39398;48.382;9.802;2023-04-03T14:16:53;2.80;;;2.50;;
53521;SDS011;39398;48.382;9.802;2023-04-03T14:21:57;2.72;;;2.53;;
53521;SDS011;39398;48.382;9.802;2023-04-03T14:27:01;5.90;;;3.10;;
53521;SDS011;39398;48.382;9.802;2023-04-03T14:32:04;4.85;;;3.40;;
53521;SDS011;39398;48.382;9.802;2023-04-03T14:37:17;4.65;;;2.50;;
53521;SDS011;39398;48.382;9.802;2023-04-03T14:42:21;3.20;;;2.63;;
53521;SDS011;39398;48.382;9.802;2023-04-03T14:47:26;3.53;;;2.60;;
53521;SDS011;39398;48.382;9.802;2023-04-03T14:57:35;3.97;;;2.53;;
53521;SDS011;39398;48.382;9.802;2023-04-03T15:02:40;4.25;;;2.50;;
53521;SDS011;39398;48.382;9.802;2023-04-03T15:07:52;4.07;;;2.78;;
53521;SDS011;39398;48.382;9.802;2023-04-03T15:12:54;5.03;;;3.45;;
53521;SDS011;39398;48.382;9.802;2023-04-03T15:17:58;5.40;;;3.20;;
53521;SDS011;39398;48.382;9.802;2023-04-03T15:23:00;4.90;;;3.42;;
53521;SDS011;39398;48.382;9.802;2023-04-03T15:28:02;3.20;;;2.90;;
53521;SDS011;39398;48.382;9.802;2023-04-03T15:33:05;2.47;;;2.28;;
53521;SDS011;39398;48.382;9.802;2023-04-03T15:38:07;3.55;;;2.70;;
53521;SDS011;39398;48.382;9.802;2023-04-03T15:43:09;4.88;;;3.10;;
53521;SDS011;39398;48.382;9.802;2023-04-03T15:48:12;3.97;;;2.40;;
53521;SDS011;39398;48.382;9.802;2023-04-03T15:53:15;2.25;;;2.05;;
53521;SDS011;39398;48.382;9.802;2023-04-03T15:58:16;2.78;;;2.20;;
53521;SDS011;39398;48.382;9.802;2023-04-03T16:03:19;4.00;;;2.17;;
53521;SDS011;39398;48.382;9.802;2023-04-03T16:08:22;2.97;;;1.98;;
53521;SDS011;39398;48.382;9.802;2023-04-03T16:13:24;5.03;;;2.47;;
53521;SDS011;39398;48.382;9.802;2023-04-03T16:18:27;2.90;;;2.10;;
53521;SDS011;39398;48.382;9.802;2023-04-03T16:23:29;2.42;;;2.15;;
53521;SDS011;39398;48.382;9.802;2023-04-03T16:28:30;2.88;;;2.42;;
53521;SDS011;39398;48.382;9.802;2023-04-03T16:33:33;2.90;;;2.42;;
53521;SDS011;39398;48.382;9.802;2023-04-03T16:38:35;4.80;;;2.35;;
53521;SDS011;39398;48.382;9.802;2023-04-03T16:43:37;2.42;;;2.03;;
53521;SDS011;39398;48.382;9.802;2023-04-03T16:48:40;2.35;;;1.90;;
53521;SDS011;39398;48.382;9.802;2023-04-03T16:53:42;2.63;;;2.25;;
53521;SDS011;39398;48.382;9.802;2023-04-03T16:58:44;2.88;;;1.95;;
53521;SDS011;39398;48.382;9.802;2023-04-03T17:03:47;3.22;;;2.20;;
53521;SDS011;39398;48.382;9.802;2023-04-03T17:08:50;2.70;;;2.10;;
53521;SDS011;39398;48.382;9.802;2023-04-03T17:13:52;3.47;;;2.17;;
53521;SDS011;39398;48.382;9.802;2023-04-03T17:18:55;5.20;;;1.98;;
53521;SDS011;39398;48.382;9.802;2023-04-03T17:23:58;4.05;;;2.25;;
53521;SDS011;39398;48.382;9.802;2023-04-03T17:29:02;2.28;;;1.88;;
53521;SDS011;39398;48.382;9.802;2023-04-03T17:34:06;3.78;;;2.60;;
53521;SDS011;39398;48.382;9.802;2023-04-03T17:39:08;2.30;;;1.90;;
53521;SDS011;39398;48.382;9.802;2023-04-03T17:44:09;3.78;;;2.03;;
53521;SDS011;39398;48.382;9.802;2023-04-03T17:49:13;3.40;;;2.50;;
53521;SDS011;39398;48.382;9.802;2023-04-03T17:54:14;3.45;;;2.00;;
53521;SDS011;39398;48.382;9.802;2023-04-03T17:59:16;3.75;;;1.75;;
53521;SDS011;39398;48.382;9.802;2023-04-03T18:04:20;4.68;;;2.15;;
53521;SDS011;39398;48.382;9.802;2023-04-03T18:09:23;4.32;;;2.10;;
53521;SDS011;39398;48.382;9.802;2023-04-03T18:14:27;3.30;;;2.10;;
53521;SDS011;39398;48.382;9.802;2023-04-03T18:19:30;5.00;;;2.03;;
53521;SDS011;39398;48.382;9.802;2023-04-03T18:24:32;5.97;;;2.55;;
53521;SDS011;39398;48.382;9.802;2023-04-03T18:29:35;1.85;;;1.65;;
53521;SDS011;39398;48.382;9.802;2023-04-03T18:34:39;3.75;;;2.03;;
53521;SDS011;39398;48.382;9.802;2023-04-03T18:39:41;2.38;;;1.90;;
53521;SDS011;39398;48.382;9.802;2023-04-03T18:44:43;2.88;;;1.95;;
53521;SDS011;39398;48.382;9.802;2023-04-03T18:49:49;2.22;;;1.80;;
53521;SDS011;39398;48.382;9.802;2023-04-03T18:54:51;2.03;;;1.80;;
53521;SDS011;39398;48.382;9.802;2023-04-03T18:59:52;7.20;;;2.53;;
53521;SDS011;39398;48.382;9.802;2023-04-03T19:04:55;3.42;;;1.70;;
53521;SDS011;39398;48.382;9.802;2023-04-03T19:09:57;14.15;;;2.20;;
53521;SDS011;39398;48.382;9.802;2023-04-03T19:14:59;2.78;;;2.25;;
53521;SDS011;39398;48.382;9.802;2023-04-03T19:20:02;3.63;;;2.70;;
53521;SDS011;39398;48.382;9.802;2023-04-03T19:25:04;3.65;;;2.33;;
53521;SDS011;39398;48.382;9.802;2023-04-03T19:30:07;4.38;;;2.78;;
53521;SDS011;39398;48.382;9.802;2023-04-03T19:35:12;2.53;;;1.80;;
53521;SDS011;39398;48.382;9.802;2023-04-03T19:40:14;4.30;;;2.38;;
53521;SDS011;39398;48.382;9.802;2023-04-03T19:45:16;3.05;;;2.22;;
53521;SDS011;39398;48.382;9.802;2023-04-03T19:50:19;4.75;;;2.58;;
53521;SDS011;39398;48.382;9.802;2023-04-03T19:55:20;4.30;;;2.92;;
53521;SDS011;39398;48.382;9.802;2023-04-03T20:00:22;5.43;;;3.78;;
53521;SDS011;39398;48.382;9.802;2023-04-03T20:05:25;7.25;;;2.72;;
53521;SDS011;39398;48.382;9.802;2023-04-03T20:10:27;3.90;;;2.90;;
53521;SDS011;39398;48.382;9.802;2023-04-03T20:15:28;3.95;;;3.00;;
53521;SDS011;39398;48.382;9.802;2023-04-03T20:20:31;2.83;;;2.38;;
53521;SDS011;39398;48.382;9.802;2023-04-03T20:25:32;8.88;;;3.25;;
53521;SDS011;39398;48.382;9.802;2023-04-03T20:30:37;5.15;;;2.80;;
53521;SDS011;39398;48.382;9.802;2023-04-03T20:35:41;6.13;;;3.33;;
53521;SDS011;39398;48.382;9.802;2023-04-03T20:40:42;5.00;;;3.10;;
53521;SDS011;39398;48.382;9.802;2023-04-03T20:45:44;4.95;;;2.63;;
53521;SDS011;39398;48.382;9.802;2023-04-03T20:50:47;4.05;;;2.10;;
53521;SDS011;39398;48.382;9.802;2023-04-03T20:55:54;3.45;;;2.05;;
53521;SDS011;39398;48.382;9.802;2023-04-03T21:00:56;2.70;;;2.00;;
53521;SDS011;39398;48.382;9.802;2023-04-03T21:21:41;2.05;;;1.85;;
53521;SDS011;39398;48.382;9.802;2023-04-03T21:26:43;4.80;;;2.72;;
53521;SDS011;39398;48.382;9.802;2023-04-03T21:31:45;2.72;;;2.30;;
53521;SDS011;39398;48.382;9.802;2023-04-03T21:36:49;3.45;;;2.50;;
53521;SDS011;39398;48.382;9.802;2023-04-03T21:41:51;4.35;;;2.97;;
53521;SDS011;39398;48.382;9.802;2023-04-03T21:46:52;5.30;;;2.30;;
53521;SDS011;39398;48.382;9.802;2023-04-03T21:51:55;6.32;;;2.67;;
53521;SDS011;39398;48.382;9.802;2023-04-03T21:56:56;4.00;;;2.70;;
53521;SDS011;39398;48.382;9.802;2023-04-03T22:01:58;3.28;;;2.90;;
53521;SDS011;39398;48.382;9.802;2023-04-03T22:07:03;4.68;;;2.83;;
53521;SDS011;39398;48.382;9.802;2023-04-03T22:12:04;5.55;;;3.17;;
53521;SDS011;39398;48.382;9.802;2023-04-03T22:17:06;6.38;;;2.70;;
53521;SDS011;39398;48.382;9.802;2023-04-03T22:22:09;5.80;;;3.00;;
53521;SDS011;39398;48.382;9.802;2023-04-03T22:27:10;6.07;;;2.90;;
53521;SDS011;39398;48.382;9.802;2023-04-03T22:32:12;6.10;;;3.00;;
53521;SDS011;39398;48.382;9.802;2023-04-03T22:37:15;3.30;;;2.38;;
53521;SDS011;39398;48.382;9.802;2023-04-03T22:42:16;9.40;;;3.38;;
53521;SDS011;39398;48.382;9.802;2023-04-03T22:47:18;4.22;;;2.78;;
53521;SDS011;39398;48.382;9.802;2023-04-03T22:52:21;6.07;;;3.20;;
53521;SDS011;39398;48.382;9.802;2023-04-03T22:57:22;5.85;;;3.20;;
53521;SDS011;39398;48.382;9.802;2023-04-03T23:02:24;3.25;;;2.95;;
53521;SDS011;39398;48.382;9.802;2023-04-03T23:07:27;6.35;;;3.30;;
53521;SDS011;39398;48.382;9.802;2023-04-03T23:12:28;4.93;;;2.65;;
53521;SDS011;39398;48.382;9.802;2023-04-03T23:17:30;3.25;;;2.97;;
53521;SDS011;39398;48.382;9.802;2023-04-03T23:22:32;3.65;;;3.00;;
53521;SDS011;39398;48.382;9.802;2023-04-03T23:27:34;3.30;;;2.60;;
53521;SDS011;39398;48.382;9.802;2023-04-03T23:32:35;4.20;;;2.50;;
53521;SDS011;39398;48.382;9.802;2023-04-03T23:37:38;4.38;;;2.33;;
53521;SDS011;39398;48.382;9.802;2023-04-03T23:42:40;7.15;;;2.70;;
53521;SDS011;39398;48.382;9.802;2023-04-03T23:47:42;6.05;;;2.65;;
53521;SDS011;39398;48.382;9.802;2023-04-03T23:52:45;3.40;;;2.75;;
53521;SDS011;39398;48.382;9.802;2023-04-03T23:57:46;5.38;;;2.85;;
